Dades meteomassalio
Diari Summary for Octubre 26, 2017 Units:  Metric    English   Both
« Previous Day
Next Day »
Diari Semanal Mensual Anual Personalitzat
  Maxima: Minima: Mijana:
Temperatura: 26.7 °C 3.9 °C 12.9 °C
Rosada: 10.6 °C 1.0 °C 4.7 °C
Humitat: 88 % 30 % 62 %
Velocitat del vent: 14.8 km/h 0.0 km/h 1.6 km/h
Racha vent: 14.8 km/h - -
Vent:- - West
Pressio: 1030.7 hPa 1027.7 hPa -
Pluja: 0.0 mm    
Historical Graphs
 
 
Tabular Data for Octubre 26, 2017
Time Temperature Dew Point Pressure Wind Wind Speed Wind Gust Humidity Rainfall Rate (Hourly) solar Conditions
00:01 8.9 °C 4.5 °C 1028.0 hPa Calm     74 % 0.0 mm 0.0 W/m2 CLR
00:06 8.9 °C 4.5 °C 1028.0 hPa Calm     74 % 0.0 mm 0.0 W/m2 CLR
00:12 8.9 °C 4.3 °C 1028.0 hPa Calm     73 % 0.0 mm 0.0 W/m2 CLR
00:17 8.3 °C 3.8 °C 1028.0 hPa Calm     73 % 0.0 mm 0.0 W/m2 CLR
00:22 8.3 °C 3.8 °C 1028.0 hPa Calm     73 % 0.0 mm 0.0 W/m2 CLR
00:27 8.3 °C 3.8 °C 1028.0 hPa Calm     73 % 0.0 mm 0.0 W/m2 CLR
00:32 8.3 °C 3.9 °C 1028.0 hPa Calm     74 % 0.0 mm 0.0 W/m2 CLR
00:37 8.3 °C 4.2 °C 1028.0 hPa Calm     75 % 0.0 mm 0.0 W/m2 CLR
00:42 8.3 °C 4.2 °C 1028.0 hPa Calm     75 % 0.0 mm 0.0 W/m2 CLR
00:47 8.3 °C 4.3 °C 1028.0 hPa Calm     76 % 0.0 mm 0.0 W/m2 CLR
00:52 8.3 °C 4.3 °C 1028.3 hPa Calm     76 % 0.0 mm 0.0 W/m2 CLR
00:57 8.3 °C 4.3 °C 1028.3 hPa Calm     76 % 0.0 mm 0.0 W/m2 CLR
01:02 7.8 °C 4.0 °C 1028.3 hPa Calm     77 % 0.0 mm 0.0 W/m2 CLR
01:07 7.8 °C 4.0 °C 1028.3 hPa Calm     77 % 0.0 mm 0.0 W/m2 CLR
01:12 7.8 °C 4.0 °C 1028.3 hPa Calm     77 % 0.0 mm 0.0 W/m2 CLR
01:17 7.8 °C 4.2 °C 1028.3 hPa Calm     78 % 0.0 mm 0.0 W/m2 CLR
01:22 7.8 °C 4.2 °C 1028.3 hPa Calm     78 % 0.0 mm 0.0 W/m2 CLR
01:27 7.8 °C 4.2 °C 1028.3 hPa Calm     78 % 0.0 mm 0.0 W/m2 CLR
01:32 7.8 °C 4.2 °C 1028.3 hPa Calm     78 % 0.0 mm 0.0 W/m2 CLR
01:37 8.3 °C 4.7 °C 1028.0 hPa Calm     78 % 0.0 mm 0.0 W/m2 CLR
01:42 8.3 °C 4.7 °C 1028.0 hPa Calm     78 % 0.0 mm 0.0 W/m2 CLR
01:47 8.9 °C 5.4 °C 1028.0 hPa Calm     79 % 0.0 mm 0.0 W/m2 CLR
01:52 8.9 °C 5.4 °C 1028.3 hPa Calm     79 % 0.0 mm 0.0 W/m2 CLR
01:57 8.3 °C 4.9 °C 1028.0 hPa Calm     79 % 0.0 mm 0.0 W/m2 CLR
02:02 8.3 °C 4.9 °C 1028.0 hPa Calm     79 % 0.0 mm 0.0 W/m2 CLR
02:07 8.3 °C 5.1 °C 1028.0 hPa Calm     80 % 0.0 mm 0.0 W/m2 CLR
02:12 7.8 °C 4.6 °C 1028.0 hPa Calm     80 % 0.0 mm 0.0 W/m2 CLR
02:17 7.8 °C 4.6 °C 1028.0 hPa Calm     80 % 0.0 mm 0.0 W/m2 CLR
02:22 7.8 °C 4.6 °C 1028.3 hPa Calm     80 % 0.0 mm 0.0 W/m2 CLR
02:27 7.2 °C 4.0 °C 1028.3 hPa Calm     80 % 0.0 mm 0.0 W/m2 CLR
02:32 7.2 °C 4.0 °C 1028.3 hPa Calm     80 % 0.0 mm 0.0 W/m2 CLR
02:37 7.2 °C 4.0 °C 1028.3 hPa Calm     80 % 0.0 mm 0.0 W/m2 CLR
02:42 7.8 °C 4.7 °C 1028.3 hPa Calm     81 % 0.0 mm 0.0 W/m2 CLR
02:47 8.3 °C 5.4 °C 1028.0 hPa Calm     82 % 0.0 mm 0.0 W/m2 CLR
02:52 8.3 °C 5.3 °C 1028.0 hPa Calm     81 % 0.0 mm 0.0 W/m2 CLR
02:57 7.8 °C 4.7 °C 1028.0 hPa Calm     81 % 0.0 mm 0.0 W/m2 CLR
03:02 7.8 °C 4.7 °C 1028.0 hPa Calm     81 % 0.0 mm 0.0 W/m2 CLR
03:07 8.3 °C 5.3 °C 1028.0 hPa Calm     81 % 0.0 mm 0.0 W/m2 CLR
03:12 8.3 °C 5.4 °C 1028.0 hPa Calm     82 % 0.0 mm 0.0 W/m2 CLR
03:17 7.8 °C 4.9 °C 1028.0 hPa Calm     82 % 0.0 mm 0.0 W/m2 CLR
03:22 7.8 °C 4.9 °C 1028.3 hPa Calm     82 % 0.0 mm 0.0 W/m2 CLR
03:27 7.8 °C 4.9 °C 1028.0 hPa Calm     82 % 0.0 mm 0.0 W/m2 CLR
03:32 7.8 °C 4.9 °C 1028.0 hPa Calm     82 % 0.0 mm 0.0 W/m2 CLR
03:37 7.8 °C 4.9 °C 1028.0 hPa Calm     82 % 0.0 mm 0.0 W/m2 CLR
03:42 7.2 °C 4.3 °C 1028.0 hPa Calm     82 % 0.0 mm 0.0 W/m2 CLR
03:47 7.2 °C 4.5 °C 1028.0 hPa Calm     83 % 0.0 mm 0.0 W/m2 CLR
03:52 7.2 °C 4.5 °C 1028.3 hPa Calm     83 % 0.0 mm 0.0 W/m2 CLR
03:57 7.2 °C 4.3 °C 1028.0 hPa Calm     82 % 0.0 mm 0.0 W/m2 CLR
04:02 7.8 °C 4.9 °C 1028.0 hPa Calm     82 % 0.0 mm 0.0 W/m2 CLR
04:07 7.8 °C 5.2 °C 1028.0 hPa Calm     84 % 0.0 mm 0.0 W/m2 CLR
04:12 7.2 °C 4.5 °C 1028.0 hPa Calm     83 % 0.0 mm 0.0 W/m2 CLR
04:17 7.2 °C 4.7 °C 1028.0 hPa Calm     84 % 0.0 mm 0.0 W/m2 CLR
04:22 7.2 °C 4.7 °C 1028.0 hPa Calm     84 % 0.0 mm 0.0 W/m2 CLR
04:27 7.2 °C 4.5 °C 1028.0 hPa Calm     83 % 0.0 mm 0.0 W/m2 CLR
04:32 7.2 °C 4.3 °C 1028.0 hPa Calm     82 % 0.0 mm 0.0 W/m2 CLR
04:37 6.7 °C 3.8 °C 1028.0 hPa Calm     82 % 0.0 mm 0.0 W/m2 CLR
04:42 6.7 °C 4.0 °C 1028.0 hPa Calm     83 % 0.0 mm 0.0 W/m2 CLR
04:47 6.7 °C 4.2 °C 1028.0 hPa Calm     84 % 0.0 mm 0.0 W/m2 CLR
04:52 6.7 °C 4.3 °C 1028.0 hPa Calm     85 % 0.0 mm 0.0 W/m2 CLR
04:57 6.7 °C 4.3 °C 1028.0 hPa Calm     85 % 0.0 mm 0.0 W/m2 CLR
05:02 6.1 °C 3.4 °C 1028.0 hPa Calm     83 % 0.0 mm 0.0 W/m2 CLR
05:07 6.1 °C 3.4 °C 1028.0 hPa Calm     83 % 0.0 mm 0.0 W/m2 CLR
05:12 6.1 °C 3.4 °C 1028.0 hPa Calm     83 % 0.0 mm 0.0 W/m2 CLR
05:17 5.6 °C 2.9 °C 1028.0 hPa Calm     83 % 0.0 mm 0.0 W/m2 CLR
05:22 5.6 °C 3.2 °C 1028.0 hPa Calm     85 % 0.0 mm 0.0 W/m2 CLR
05:27 5.6 °C 3.2 °C 1028.3 hPa Calm     85 % 0.0 mm 0.0 W/m2 CLR
05:32 5.6 °C 3.2 °C 1028.3 hPa Calm     85 % 0.0 mm 0.0 W/m2 CLR
05:37 5.6 °C 3.1 °C 1028.0 hPa Calm     84 % 0.0 mm 0.0 W/m2 CLR
05:42 5.6 °C 3.1 °C 1028.3 hPa Calm     84 % 0.0 mm 0.0 W/m2 CLR
05:47 5.6 °C 3.1 °C 1028.3 hPa Calm     84 % 0.0 mm 0.0 W/m2 CLR
05:52 5.6 °C 3.1 °C 1028.3 hPa Calm     84 % 0.0 mm 0.0 W/m2 CLR
05:57 5.6 °C 3.1 °C 1028.3 hPa Calm     84 % 0.0 mm 0.0 W/m2 CLR
06:02 5.6 °C 3.2 °C 1028.3 hPa Calm     85 % 0.0 mm 0.0 W/m2 CLR
06:07 5.0 °C 2.7 °C 1028.3 hPa Calm     85 % 0.0 mm 0.0 W/m2 CLR
06:12 5.0 °C 2.7 °C 1028.3 hPa Calm     85 % 0.0 mm 0.0 W/m2 CLR
06:17 5.0 °C 2.8 °C 1028.3 hPa Calm     86 % 0.0 mm 0.0 W/m2 CLR
06:22 5.0 °C 2.8 °C 1028.3 hPa Calm     86 % 0.0 mm 0.0 W/m2 CLR
06:27 5.0 °C 2.8 °C 1028.3 hPa Calm     86 % 0.0 mm 0.0 W/m2 CLR
06:32 5.0 °C 2.8 °C 1028.3 hPa Calm     86 % 0.0 mm 0.0 W/m2 CLR
06:37 5.0 °C 2.8 °C 1028.3 hPa Calm     86 % 0.0 mm 0.0 W/m2 CLR
06:42 5.0 °C 3.0 °C 1028.3 hPa Calm     87 % 0.0 mm 0.0 W/m2 CLR
06:47 5.0 °C 2.8 °C 1028.3 hPa Calm     86 % 0.0 mm 0.0 W/m2 CLR
06:52 5.0 °C 3.0 °C 1028.7 hPa Calm     87 % 0.0 mm 0.0 W/m2 CLR
06:57 4.4 °C 2.4 °C 1028.7 hPa Calm     87 % 0.0 mm 0.0 W/m2 CLR
07:02 4.4 °C 2.4 °C 1028.7 hPa Calm     87 % 0.0 mm 0.0 W/m2 CLR
07:07 4.4 °C 2.3 °C 1028.7 hPa Calm     86 % 0.0 mm 0.0 W/m2 CLR
07:12 5.0 °C 3.0 °C 1028.7 hPa Calm     87 % 0.0 mm 0.0 W/m2 CLR
07:17 5.0 °C 3.0 °C 1028.7 hPa Calm     87 % 0.0 mm 0.0 W/m2 CLR
07:23 5.0 °C 2.8 °C 1028.7 hPa Calm     86 % 0.0 mm 0.0 W/m2 CLR
07:27 5.0 °C 3.0 °C 1028.7 hPa Calm     87 % 0.0 mm 0.0 W/m2 CLR
07:33 5.0 °C 3.0 °C 1028.7 hPa Calm     87 % 0.0 mm 0.0 W/m2 CLR
07:38 5.0 °C 3.0 °C 1028.7 hPa Calm     87 % 0.0 mm 0.0 W/m2 CLR
07:43 5.0 °C 3.0 °C 1028.7 hPa Calm     87 % 0.0 mm 0.0 W/m2 CLR
07:48 4.4 °C 2.3 °C 1028.7 hPa Calm     86 % 0.0 mm 0.0 W/m2 CLR
07:53 4.4 °C 2.4 °C 1029.0 hPa Calm     87 % 0.0 mm 0.0 W/m2 CLR
07:58 4.4 °C 2.6 °C 1029.0 hPa Calm     88 % 0.0 mm 0.0 W/m2 CLR
08:03 4.4 °C 2.6 °C 1028.7 hPa Calm     88 % 0.0 mm 0.0 W/m2 CLR
08:08 4.4 °C 2.6 °C 1029.0 hPa Calm     88 % 0.0 mm 0.0 W/m2 CLR
08:13 4.4 °C 2.4 °C 1028.7 hPa Calm     87 % 0.0 mm 0.0 W/m2 CLR
08:18 4.4 °C 2.6 °C 1029.0 hPa Calm     88 % 0.0 mm 0.0 W/m2 OVC
08:23 3.9 °C 2.1 °C 1029.0 hPa Calm     88 % 0.0 mm 5.0 W/m2 OVC
08:28 4.4 °C 2.4 °C 1029.0 hPa Calm     87 % 0.0 mm 7.0 W/m2 OVC
08:33 4.4 °C 2.4 °C 1029.0 hPa Calm     87 % 0.0 mm 9.0 W/m2 BKN
08:34 4.4 °C 2.4 °C 1029.0 hPa Calm     87 % 0.0 mm 9.0 W/m2 BKN
08:39 4.4 °C 2.6 °C 1029.0 hPa Calm     88 % 0.0 mm 12.0 W/m2 BKN
08:44 4.4 °C 2.6 °C 1029.0 hPa Calm     88 % 0.0 mm 14.0 W/m2 BKN
08:49 4.4 °C 2.6 °C 1029.0 hPa Calm     88 % 0.0 mm 16.0 W/m2 BKN
08:54 4.4 °C 2.6 °C 1029.0 hPa Calm     88 % 0.0 mm 23.0 W/m2 BKN
08:59 4.4 °C 2.6 °C 1029.3 hPa Calm     88 % 0.0 mm 33.0 W/m2 BKN
09:04 5.0 °C 3.0 °C 1029.0 hPa Calm     87 % 0.0 mm 42.0 W/m2 BKN
09:09 5.0 °C 2.8 °C 1029.0 hPa Calm     86 % 0.0 mm 56.0 W/m2 SCT
09:14 5.0 °C 2.8 °C 1029.3 hPa Calm     86 % 0.0 mm 70.0 W/m2 FEW
09:19 5.0 °C 2.7 °C 1029.3 hPa Calm     85 % 0.0 mm 81.0 W/m2 FEW
09:24 5.6 °C 3.1 °C 1029.3 hPa Calm     84 % 0.0 mm 98.0 W/m2 FEW
09:29 5.6 °C 3.1 °C 1029.3 hPa Calm     84 % 0.0 mm 116.0 W/m2 CLR
09:34 5.6 °C 2.9 °C 1029.3 hPa Calm     83 % 0.0 mm 114.0 W/m2 CLR
09:39 6.1 °C 3.4 °C 1029.3 hPa Calm     83 % 0.0 mm 148.0 W/m2 CLR
09:44 6.7 °C 3.8 °C 1029.3 hPa Calm     82 % 0.0 mm 162.0 W/m2 CLR
09:49 6.7 °C 3.4 °C 1029.3 hPa Calm     80 % 0.0 mm 121.0 W/m2 CLR
09:54 7.2 °C 3.4 °C 1029.3 hPa Calm     77 % 0.0 mm 202.0 W/m2 CLR
09:59 7.2 °C 3.1 °C 1029.3 hPa Calm     75 % 0.0 mm 206.0 W/m2 CLR
10:04 7.8 °C 3.2 °C 1029.3 hPa Calm     73 % 0.0 mm 232.0 W/m2 CLR
10:09 7.8 °C 3.1 °C 1029.3 hPa Calm     72 % 0.0 mm 248.0 W/m2 CLR
10:14 8.3 °C 3.2 °C 1029.7 hPa Calm     70 % 0.0 mm 265.0 W/m2 CLR
10:19 8.9 °C 3.5 °C 1029.7 hPa Calm     69 % 0.0 mm 278.0 W/m2 CLR
10:24 9.4 °C 3.6 °C 1029.7 hPa Calm     67 % 0.0 mm 290.0 W/m2 CLR
10:29 10.0 °C 3.9 °C 1029.7 hPa Calm     66 % 0.0 mm 304.0 W/m2 CLR
10:34 10.6 °C 4.2 °C 1029.7 hPa Calm     65 % 0.0 mm 318.0 W/m2 CLR
10:39 11.1 °C 4.6 °C 1029.7 hPa Calm     64 % 0.0 mm 329.0 W/m2 CLR
10:44 11.7 °C 4.8 °C 1029.3 hPa Calm     63 % 0.0 mm 343.0 W/m2 CLR
10:49 12.2 °C 4.9 °C 1029.3 hPa Calm     61 % 0.0 mm 355.0 W/m2 CLR
10:54 12.2 °C 4.7 °C 1029.3 hPa Calm     60 % 0.0 mm 369.0 W/m2 CLR
10:59 12.8 °C 4.9 °C 1029.3 hPa Calm     59 % 0.0 mm 380.0 W/m2 CLR
11:04 13.3 °C 5.0 °C 1029.7 hPa Calm     57 % 0.0 mm 390.0 W/m2 CLR
11:09 13.9 °C 4.7 °C 1029.7 hPa Calm     54 % 0.0 mm 401.0 W/m2 CLR
11:14 13.9 °C 4.7 °C 1029.3 hPa Calm     54 % 0.0 mm 413.0 W/m2 CLR
11:19 14.4 °C 4.7 °C 1029.3 hPa Calm     52 % 0.0 mm 425.0 W/m2 CLR
11:24 14.4 °C 4.2 °C 1029.3 hPa Calm     50 % 0.0 mm 436.0 W/m2 CLR
11:29 15.0 °C 4.4 °C 1029.3 hPa Calm     49 % 0.0 mm 446.0 W/m2 CLR
11:34 16.1 °C 5.4 °C 1029.3 hPa Calm     49 % 0.0 mm 455.0 W/m2 CLR
11:39 16.7 °C 5.9 °C 1029.3 hPa Calm     49 % 0.0 mm 468.0 W/m2 CLR
11:44 16.7 °C 5.6 °C 1029.3 hPa Calm     48 % 0.0 mm 475.0 W/m2 CLR
11:49 17.2 °C 6.1 °C 1029.3 hPa Calm     48 % 0.0 mm 482.0 W/m2 CLR
11:54 18.3 °C 7.1 °C 1029.3 hPa Calm     48 % 0.0 mm 492.0 W/m2 CLR
11:59 18.9 °C 7.0 °C 1029.3 hPa Calm     46 % 0.0 mm 503.0 W/m2 CLR
12:04 19.4 °C 7.5 °C 1029.3 hPa Calm     46 % 0.0 mm 510.0 W/m2 CLR
12:09 19.4 °C 7.5 °C 1029.3 hPa Calm     46 % 0.0 mm 517.0 W/m2 CLR
12:14 20.0 °C 7.7 °C 1029.3 hPa Calm     45 % 0.0 mm 526.0 W/m2 CLR
12:19 20.6 °C 8.2 °C 1029.3 hPa Calm     45 % 0.0 mm 531.0 W/m2 CLR
12:24 20.6 °C 8.2 °C 1029.3 hPa North 6.4 km/h 6.4 km/h 45 % 0.0 mm 538.0 W/m2 CLR
12:29 21.1 °C 8.7 °C 1029.3 hPa North 6.4 km/h 6.4 km/h 45 % 0.0 mm 541.0 W/m2 CLR
12:34 21.1 °C 9.1 °C 1029.3 hPa NNW 6.4 km/h 6.4 km/h 46 % 0.0 mm 548.0 W/m2 CLR
12:49 21.7 °C 9.2 °C 1029.3 hPa North 13.0 km/h 13.0 km/h 45 % 0.0 mm 564.0 W/m2 CLR
12:54 22.2 °C 10.4 °C 1029.3 hPa North 9.3 km/h 9.3 km/h 47 % 0.0 mm 568.0 W/m2 CLR
12:59 22.2 °C 10.1 °C 1029.0 hPa North 5.6 km/h 6.0 km/h 46 % 0.0 mm 571.0 W/m2 CLR
13:04 22.2 °C 9.7 °C 1029.3 hPa NNW 13.0 km/h 13.0 km/h 45 % 0.0 mm 575.0 W/m2 CLR
13:09 22.8 °C 10.6 °C 1029.0 hPa NW 9.3 km/h 9.3 km/h 46 % 0.0 mm 577.0 W/m2 CLR
13:14 22.8 °C 9.9 °C 1029.0 hPa NNW 7.4 km/h 7.4 km/h 44 % 0.0 mm 580.0 W/m2 CLR
13:19 22.8 °C 9.9 °C 1029.0 hPa NNW 5.6 km/h   44 % 0.0 mm 584.0 W/m2 CLR
13:24 22.8 °C 9.6 °C 1029.0 hPa NNE 7.4 km/h 7.4 km/h 43 % 0.0 mm 585.0 W/m2 CLR
13:29 22.8 °C 9.2 °C 1029.0 hPa NNW 9.7 km/h 9.7 km/h 42 % 0.0 mm 587.0 W/m2 CLR
13:34 23.3 °C 9.3 °C 1028.7 hPa WNW 14.8 km/h 14.8 km/h 41 % 0.0 mm 589.0 W/m2 CLR
13:39 23.3 °C 9.3 °C 1028.7 hPa West 1.9 km/h 4.0 km/h 41 % 0.0 mm 589.0 W/m2 CLR
13:44 23.9 °C 9.4 °C 1028.7 hPa West 3.7 km/h 3.7 km/h 40 % 0.0 mm 589.0 W/m2 CLR
13:50 23.9 °C 9.1 °C 1028.7 hPa Calm   0.5 km/h 39 % 0.0 mm 587.0 W/m2 CLR
13:55 24.4 °C 9.6 °C 1028.7 hPa SSW 1.9 km/h   39 % 0.0 mm 587.0 W/m2 CLR
14:00 23.9 °C 9.1 °C 1028.7 hPa WNW 5.6 km/h   39 % 0.0 mm 587.0 W/m2 CLR
14:05 24.4 °C 9.6 °C 1028.7 hPa Calm     39 % 0.0 mm 585.0 W/m2 CLR
14:10 24.4 °C 9.6 °C 1028.7 hPa WSW 5.6 km/h   39 % 0.0 mm 584.0 W/m2 CLR
14:15 24.4 °C 9.2 °C 1028.7 hPa SW 3.7 km/h   38 % 0.0 mm 580.0 W/m2 CLR
14:20 24.4 °C 9.2 °C 1028.3 hPa Calm     38 % 0.0 mm 578.0 W/m2 CLR
14:25 24.4 °C 8.8 °C 1028.3 hPa Calm     37 % 0.0 mm 577.0 W/m2 CLR
14:30 24.4 °C 8.4 °C 1028.3 hPa Calm     36 % 0.0 mm 575.0 W/m2 CLR
14:35 25.0 °C 8.9 °C 1028.3 hPa WNW 1.6 km/h 1.6 km/h 36 % 0.0 mm 571.0 W/m2 CLR
14:40 25.0 °C 8.9 °C 1028.3 hPa NW 8.0 km/h 8.0 km/h 36 % 0.0 mm 564.0 W/m2 CLR
14:45 25.0 °C 8.9 °C 1028.0 hPa WNW 3.7 km/h   36 % 0.0 mm 561.0 W/m2 CLR
14:50 25.0 °C 8.9 °C 1028.0 hPa NNW 5.6 km/h 5.6 km/h 36 % 0.0 mm 557.0 W/m2 CLR
14:55 25.6 °C 9.4 °C 1028.0 hPa NW 8.0 km/h 8.2 km/h 36 % 0.0 mm 552.0 W/m2 CLR
15:00 25.6 °C 9.4 °C 1028.0 hPa WNW 13.0 km/h 13.0 km/h 36 % 0.0 mm 545.0 W/m2 CLR
15:05 25.6 °C 9.8 °C 1028.0 hPa WNW 7.4 km/h 7.4 km/h 37 % 0.0 mm 540.0 W/m2 CLR
15:10 25.6 °C 9.8 °C 1028.0 hPa NW 11.1 km/h 11.1 km/h 37 % 0.0 mm 533.0 W/m2 CLR
15:15 25.6 °C 9.4 °C 1027.7 hPa NW 5.6 km/h 5.6 km/h 36 % 0.0 mm 527.0 W/m2 CLR
15:20 26.1 °C 9.4 °C 1027.7 hPa WNW 7.4 km/h 7.4 km/h 35 % 0.0 mm 519.0 W/m2 CLR
15:25 26.1 °C 9.4 °C 1027.7 hPa WNW 1.9 km/h   35 % 0.0 mm 513.0 W/m2 CLR
15:30 26.1 °C 8.6 °C 1027.7 hPa NW 5.6 km/h 5.6 km/h 33 % 0.0 mm 504.0 W/m2 CLR
15:35 26.1 °C 9.0 °C 1027.7 hPa NNW 9.7 km/h 9.7 km/h 34 % 0.0 mm 497.0 W/m2 CLR
15:40 26.7 °C 9.1 °C 1027.7 hPa NNW 7.4 km/h   33 % 0.0 mm 490.0 W/m2 CLR
15:45 26.7 °C 9.5 °C 1027.7 hPa NW 3.7 km/h 3.7 km/h 34 % 0.0 mm 480.0 W/m2 CLR
15:50 26.7 °C 9.5 °C 1027.7 hPa Calm     34 % 0.0 mm 471.0 W/m2 CLR
15:55 26.1 °C 9.0 °C 1027.7 hPa WNW 1.9 km/h 1.9 km/h 34 % 0.0 mm 462.0 W/m2 CLR
16:00 26.1 °C 9.4 °C 1027.7 hPa North 5.6 km/h 5.6 km/h 35 % 0.0 mm 452.0 W/m2 CLR
16:05 26.1 °C 9.9 °C 1027.7 hPa Calm     36 % 0.0 mm 439.0 W/m2 CLR
16:10 26.1 °C 9.9 °C 1027.7 hPa NW 3.2 km/h 3.2 km/h 36 % 0.0 mm 427.0 W/m2 CLR
16:15 26.1 °C 9.9 °C 1027.7 hPa NNW 7.4 km/h 7.4 km/h 36 % 0.0 mm 418.0 W/m2 CLR
16:20 26.1 °C 10.3 °C 1027.7 hPa NW 1.9 km/h 1.9 km/h 37 % 0.0 mm 404.0 W/m2 CLR
16:25 26.1 °C 10.3 °C 1027.7 hPa NW 1.9 km/h 1.9 km/h 37 % 0.0 mm 394.0 W/m2 CLR
16:30 26.1 °C 9.4 °C 1027.7 hPa NW 4.8 km/h 4.8 km/h 35 % 0.0 mm 383.0 W/m2 CLR
16:35 26.1 °C 9.0 °C 1027.7 hPa West 11.3 km/h 11.3 km/h 34 % 0.0 mm 373.0 W/m2 CLR
16:40 25.6 °C 8.1 °C 1027.7 hPa West 5.6 km/h 5.6 km/h 33 % 0.0 mm 362.0 W/m2 CLR
16:45 25.6 °C 7.6 °C 1027.7 hPa West 5.6 km/h 5.6 km/h 32 % 0.0 mm 348.0 W/m2 CLR
16:46 25.6 °C 8.1 °C 1027.7 hPa West 6.4 km/h 6.4 km/h 33 % 0.0 mm 348.0 W/m2 CLR
16:51 26.1 °C 8.1 °C 1027.7 hPa Calm     32 % 0.0 mm 334.0 W/m2 CLR
16:56 26.1 °C 8.1 °C 1027.7 hPa West 5.6 km/h 5.6 km/h 32 % 0.0 mm 320.0 W/m2 CLR
17:01 26.7 °C 8.1 °C 1027.7 hPa West 9.3 km/h 9.3 km/h 31 % 0.0 mm 308.0 W/m2 CLR
17:06 26.1 °C 7.7 °C 1027.7 hPa WNW 3.7 km/h 3.7 km/h 31 % 0.0 mm 295.0 W/m2 CLR
17:11 26.1 °C 7.7 °C 1027.7 hPa West 3.7 km/h   31 % 0.0 mm 283.0 W/m2 CLR
17:16 26.1 °C 7.7 °C 1027.7 hPa WNW 5.6 km/h 5.6 km/h 31 % 0.0 mm 265.0 W/m2 CLR
17:21 25.6 °C 7.2 °C 1027.7 hPa WNW 3.7 km/h 3.7 km/h 31 % 0.0 mm 251.0 W/m2 CLR
17:26 25.6 °C 7.6 °C 1027.7 hPa WNW 9.7 km/h 9.7 km/h 32 % 0.0 mm 234.0 W/m2 CLR
17:31 25.6 °C 7.6 °C 1027.7 hPa West 1.9 km/h   32 % 0.0 mm 218.0 W/m2 CLR
17:36 25.0 °C 6.7 °C 1027.7 hPa WNW 5.6 km/h 5.6 km/h 31 % 0.0 mm 202.0 W/m2 CLR
17:41 25.0 °C 6.7 °C 1027.7 hPa WNW 5.6 km/h 5.6 km/h 31 % 0.0 mm 183.0 W/m2 CLR
17:46 24.4 °C 5.7 °C 1027.7 hPa WNW 5.6 km/h 5.6 km/h 30 % 0.0 mm 165.0 W/m2 CLR
17:51 23.9 °C 5.7 °C 1027.7 hPa West 3.7 km/h 3.7 km/h 31 % 0.0 mm 149.0 W/m2 CLR
17:56 23.3 °C 5.2 °C 1027.7 hPa Calm     31 % 0.0 mm 134.0 W/m2 CLR
18:01 22.8 °C 4.8 °C 1027.7 hPa Calm     31 % 0.0 mm 113.0 W/m2 CLR
18:06 22.2 °C 4.3 °C 1027.7 hPa Calm     31 % 0.0 mm 98.0 W/m2 CLR
18:11 21.1 °C 3.8 °C 1027.7 hPa Calm     32 % 0.0 mm 84.0 W/m2 FEW
18:16 20.6 °C 3.3 °C 1027.7 hPa Calm     32 % 0.0 mm 72.0 W/m2 FEW
18:21 20.0 °C 2.8 °C 1027.7 hPa Calm     32 % 0.0 mm 54.0 W/m2 SCT
18:26 19.4 °C 2.7 °C 1028.0 hPa Calm     33 % 0.0 mm 40.0 W/m2 BKN
18:31 18.9 °C 2.3 °C 1028.0 hPa Calm     33 % 0.0 mm 30.0 W/m2 BKN
18:36 18.3 °C 1.8 °C 1028.0 hPa Calm     33 % 0.0 mm 23.0 W/m2 BKN
18:41 17.8 °C 1.7 °C 1028.0 hPa Calm     34 % 0.0 mm 14.0 W/m2 BKN
18:46 17.2 °C 1.2 °C 1028.0 hPa WNW 1.9 km/h   34 % 0.0 mm 12.0 W/m2 BKN
18:51 16.7 °C 1.1 °C 1028.0 hPa Calm     35 % 0.0 mm 11.0 W/m2 BKN
18:56 16.7 °C 1.1 °C 1028.0 hPa Calm     35 % 0.0 mm 7.0 W/m2 BKN
19:01 16.1 °C 1.0 °C 1028.0 hPa Calm     36 % 0.0 mm 5.0 W/m2 OVC
19:06 16.1 °C 1.4 °C 1028.0 hPa Calm     37 % 0.0 mm 0.0 W/m2 OVC
19:11 16.1 °C 1.8 °C 1028.3 hPa Calm     38 % 0.0 mm 0.0 W/m2 OVC
19:16 16.7 °C 2.6 °C 1028.3 hPa Calm     39 % 0.0 mm 0.0 W/m2 CLR
19:21 16.1 °C 2.5 °C 1028.3 hPa Calm     40 % 0.0 mm 0.0 W/m2 CLR
19:26 16.1 °C 2.8 °C 1028.3 hPa Calm     41 % 0.0 mm 0.0 W/m2 CLR
19:31 16.7 °C 4.0 °C 1028.3 hPa Calm     43 % 0.0 mm 0.0 W/m2 CLR
19:36 16.7 °C 4.0 °C 1028.3 hPa Calm     43 % 0.0 mm 0.0 W/m2 CLR
19:37 16.7 °C 4.0 °C 1028.7 hPa Calm     43 % 0.0 mm 0.0 W/m2 CLR
19:42 16.1 °C 4.2 °C 1028.7 hPa Calm     45 % 0.0 mm 0.0 W/m2 CLR
19:47 15.6 °C 3.9 °C 1028.7 hPa Calm     46 % 0.0 mm 0.0 W/m2 CLR
19:52 15.0 °C 3.8 °C 1028.7 hPa Calm     47 % 0.0 mm 0.0 W/m2 CLR
19:57 15.0 °C 4.4 °C 1029.0 hPa Calm     49 % 0.0 mm 0.0 W/m2 CLR
19:58 15.0 °C 4.4 °C 1029.0 hPa Calm     49 % 0.0 mm 0.0 W/m2 CLR
20:03 15.6 °C 5.2 °C 1029.0 hPa Calm     50 % 0.0 mm 0.0 W/m2 CLR
20:08 15.0 °C 4.7 °C 1029.0 hPa Calm     50 % 0.0 mm 0.0 W/m2 CLR
20:13 14.4 °C 4.4 °C 1029.0 hPa Calm     51 % 0.0 mm 0.0 W/m2 CLR
20:18 13.9 °C 3.9 °C 1029.0 hPa Calm     51 % 0.0 mm 0.0 W/m2 CLR
20:23 13.3 °C 3.7 °C 1029.3 hPa Calm     52 % 0.0 mm 0.0 W/m2 CLR
20:28 12.8 °C 3.2 °C 1029.3 hPa Calm     52 % 0.0 mm 0.0 W/m2 CLR
20:33 12.2 °C 2.7 °C 1029.3 hPa Calm     52 % 0.0 mm 0.0 W/m2 CLR
20:38 12.2 °C 2.9 °C 1029.3 hPa Calm     53 % 0.0 mm 0.0 W/m2 CLR
20:43 11.7 °C 2.4 °C 1029.3 hPa Calm     53 % 0.0 mm 0.0 W/m2 CLR
20:48 11.1 °C 2.2 °C 1029.7 hPa Calm     54 % 0.0 mm 0.0 W/m2 CLR
20:53 11.1 °C 2.4 °C 1029.7 hPa Calm     55 % 0.0 mm 0.0 W/m2 CLR
20:58 10.6 °C 1.9 °C 1029.7 hPa SE 7.4 km/h 7.4 km/h 55 % 0.0 mm 0.0 W/m2 CLR
21:03 10.6 °C 2.1 °C 1029.7 hPa Calm     56 % 0.0 mm 0.0 W/m2 CLR
21:08 10.0 °C 1.6 °C 1029.7 hPa SE 5.6 km/h 5.6 km/h 56 % 0.0 mm 0.0 W/m2 CLR
21:13 10.0 °C 1.9 °C 1029.7 hPa SE 5.6 km/h 5.6 km/h 57 % 0.0 mm 0.0 W/m2 CLR
21:18 10.0 °C 1.9 °C 1029.7 hPa SSE 7.4 km/h 7.4 km/h 57 % 0.0 mm 0.0 W/m2 CLR
21:23 9.4 °C 1.3 °C 1029.7 hPa Calm     57 % 0.0 mm 0.0 W/m2 CLR
21:28 9.4 °C 1.3 °C 1029.7 hPa SE 3.7 km/h 3.7 km/h 57 % 0.0 mm 0.0 W/m2 CLR
21:33 9.4 °C 1.6 °C 1029.7 hPa ESE 3.7 km/h 3.7 km/h 58 % 0.0 mm 0.0 W/m2 CLR
21:38 9.4 °C 1.6 °C 1029.7 hPa SE 5.6 km/h 5.6 km/h 58 % 0.0 mm 0.0 W/m2 CLR
21:43 9.4 °C 1.8 °C 1029.7 hPa SE 3.7 km/h   59 % 0.0 mm 0.0 W/m2 CLR
21:48 8.9 °C 1.3 °C 1029.7 hPa Calm     59 % 0.0 mm 0.0 W/m2 CLR
21:53 8.9 °C 1.3 °C 1029.7 hPa SE 5.6 km/h 5.6 km/h 59 % 0.0 mm 0.0 W/m2 CLR
21:58 8.9 °C 1.6 °C 1030.0 hPa SSE 5.6 km/h 5.6 km/h 60 % 0.0 mm 0.0 W/m2 CLR
22:03 8.9 °C 1.6 °C 1030.0 hPa SE 7.4 km/h 7.4 km/h 60 % 0.0 mm 0.0 W/m2 CLR
22:08 8.9 °C 1.6 °C 1030.0 hPa SSE 3.7 km/h   60 % 0.0 mm 0.0 W/m2 CLR
22:13 8.3 °C 1.0 °C 1030.0 hPa SSE 7.4 km/h 7.4 km/h 60 % 0.0 mm 0.0 W/m2 CLR
22:18 8.3 °C 1.2 °C 1030.0 hPa SE 5.6 km/h 5.6 km/h 61 % 0.0 mm 0.0 W/m2 CLR
22:23 8.3 °C 1.2 °C 1030.0 hPa Calm     61 % 0.0 mm 0.0 W/m2 CLR
22:28 8.3 °C 1.2 °C 1030.0 hPa Calm     61 % 0.0 mm 0.0 W/m2 CLR
22:33 8.3 °C 1.4 °C 1030.0 hPa Calm     62 % 0.0 mm 0.0 W/m2 CLR
22:38 8.3 °C 1.4 °C 1030.0 hPa Calm     62 % 0.0 mm 0.0 W/m2 CLR
22:43 8.3 °C 1.9 °C 1030.0 hPa SSE 9.3 km/h 9.3 km/h 64 % 0.0 mm 0.0 W/m2 CLR
22:48 8.3 °C 2.1 °C 1030.4 hPa SSE 8.0 km/h 8.0 km/h 65 % 0.0 mm 0.0 W/m2 CLR
22:53 8.3 °C 1.9 °C 1030.4 hPa Calm     64 % 0.0 mm 0.0 W/m2 CLR
22:58 8.3 °C 1.4 °C 1030.4 hPa Calm     62 % 0.0 mm 0.0 W/m2 CLR
23:03 8.3 °C 1.7 °C 1030.4 hPa Calm     63 % 0.0 mm 0.0 W/m2 CLR
23:08 8.3 °C 1.7 °C 1030.4 hPa Calm     63 % 0.0 mm 0.0 W/m2 CLR
23:13 8.3 °C 1.7 °C 1030.4 hPa Calm     63 % 0.0 mm 0.0 W/m2 CLR
23:18 7.8 °C 1.4 °C 1030.4 hPa Calm     64 % 0.0 mm 0.0 W/m2 CLR
23:23 7.8 °C 1.4 °C 1030.7 hPa Calm     64 % 0.0 mm 0.0 W/m2 CLR
23:28 7.8 °C 1.8 °C 1030.7 hPa Calm     66 % 0.0 mm 0.0 W/m2 CLR
23:33 7.8 °C 2.2 °C 1030.7 hPa Calm     68 % 0.0 mm 0.0 W/m2 CLR
23:38 7.8 °C 2.1 °C 1030.7 hPa Calm     67 % 0.0 mm 0.0 W/m2 CLR
23:43 8.3 °C 2.8 °C 1030.7 hPa Calm     68 % 0.0 mm 0.0 W/m2 CLR
23:48 8.9 °C 3.5 °C 1030.7 hPa Calm     69 % 0.0 mm 0.0 W/m2 CLR
23:53 8.9 °C 3.5 °C 1030.7 hPa Calm     69 % 0.0 mm 0.0 W/m2 CLR
23:58 8.9 °C 3.7 °C 1030.7 hPa Calm     70 % 0.0 mm 0.0 W/m2 CLR
Lo Temps de Massalio
Compliments of Weather Underground - 1.25 mb